< < Back
Terminal Aerodrome Forecast


Current Version              Previous Versions:   1  2  3  4  5  6  7  8  9  

Terminal Aerodrome Forecast

805
FTUS42 KTAE 211100
TAFDHN
TAF
KDHN 211120Z 2112/2212 35004KT P6SM SKC=



Latest METAR

600
SAUS70 KWBC 220600 RRA
MTRDHN
METAR KDHN 220553Z AUTO 33004KT 10SM CLR 13/12 A3004 RMK AO2 SLP168
T01280117 10183 20122 402720094 58005


USA.gov is the U.S. government's official web portal to all federal, state and local government web resources and services.